Time;durP1;ratioP1;P1;durP2;ratioP2;P2;SDS_P1;SDS_P2;PMS_P1;PMS_P2;Temp;Humidity;BMP_temperature;BMP_pressure;BME280_temperature;BME280_humidity;BME280_pressure;Samples;Min_cycle;Max_cycle;Signal;HPM_P1;HPM_P2
2021/11/18 00:00:33;;;;;;;;;;;;;;;15.56;49.38;102681.72;5017835;28;19944;-84
2021/11/18 00:02:58;;;;;;;;;;;;;;;15.48;49.45;102684.75;5017600;28;19986;-84
2021/11/18 00:05:24;;;;;;;;;;;;;;;15.11;50.27;102694.31;5002433;28;19957;-84
2021/11/18 00:07:50;;;;;;;;;;;;;;;15.00;50.74;102683.81;5017686;28;20020;-85
2021/11/18 00:10:22;;;;;;;;;;;;;;;15.42;49.57;102685.88;5018158;28;20367;-85
2021/11/18 00:12:47;;;;;;;;;;;;;;;14.96;50.62;102697.63;5018434;28;19975;-84
2021/11/18 00:15:14;;;;;;;;;;;;;;;15.30;49.92;102697.25;5015507;28;19925;-83
2021/11/18 00:17:39;;;;;;;;;;;;;;;15.38;49.79;102688.78;5015365;28;20064;-84
2021/11/18 00:20:06;;;;;;;;;;;;;;;14.91;50.98;102694.19;4999513;28;19953;-83
2021/11/18 00:22:32;;;;;;;;;;;;;;;15.10;50.73;102694.38;4999991;28;19953;-84
2021/11/18 00:24:57;;;;;;;;;;;;;;;15.27;50.12;102696.50;5015071;28;20338;-84
2021/11/18 00:27:22;;;;;;;;;;;;;;;14.65;51.83;102704.16;5014708;28;19925;-84
2021/11/18 00:29:48;;;;;;;;;;;;;;;14.83;50.91;102702.63;5014524;28;19918;-84
2021/11/18 00:32:13;;;;;;;;;;;;;;;14.67;51.39;102718.63;5000407;28;19918;-84
2021/11/18 00:34:38;;;;;;;;;;;;;;;14.76;51.67;102715.56;5015316;28;19918;-85
2021/11/18 00:37:04;;;;;;;;;;;;;;;15.02;50.72;102702.84;5014891;28;19937;-83
2021/11/18 00:39:29;;;;;;;;;;;;;;;15.09;50.71;102698.06;5015706;28;19925;-85
2021/11/18 00:41:54;;;;;;;;;;;;;;;15.15;50.21;102706.91;4999875;28;19957;-83
2021/11/18 00:44:19;;;;;;;;;;;;;;;15.17;50.14;102707.75;5014501;28;20078;-84
2021/11/18 00:46:45;;;;;;;;;;;;;;;15.07;50.58;102709.91;5015066;28;19924;-83
2021/11/18 00:49:10;;;;;;;;;;;;;;;14.70;51.44;102713.97;5014847;28;19932;-84
2021/11/18 00:51:36;;;;;;;;;;;;;;;14.69;51.80;102703.13;5014161;28;20326;-83
2021/11/18 00:54:03;;;;;;;;;;;;;;;14.09;53.31;102696.97;5014549;28;19918;-85
2021/11/18 00:56:28;;;;;;;;;;;;;;;13.71;54.92;102702.69;5014990;28;19918;-84
2021/11/18 00:58:54;;;;;;;;;;;;;;;14.25;53.06;102695.50;5014487;28;19928;-83
2021/11/18 01:01:21;;;;;;;;;;;;;;;14.18;53.69;102700.25;4999108;28;20434;-84
2021/11/18 01:03:47;;;;;;;;;;;;;;;14.14;53.47;102701.28;5014428;28;19913;-84
2021/11/18 01:06:12;;;;;;;;;;;;;;;14.47;52.36;102712.00;4999248;28;19917;-84
2021/11/18 01:08:37;;;;;;;;;;;;;;;14.58;52.18;102714.34;5013632;28;19976;-84
2021/11/18 01:11:04;;;;;;;;;;;;;;;14.61;51.76;102714.25;5015124;28;20067;-84
2021/11/18 01:13:32;;;;;;;;;;;;;;;13.85;53.98;102715.84;5014923;28;19981;-83
2021/11/18 01:15:57;;;;;;;;;;;;;;;14.26;53.34;102718.16;5013460;28;19914;-83
2021/11/18 01:18:23;;;;;;;;;;;;;;;13.79;54.55;102719.63;5012497;28;20405;-83
2021/11/18 01:20:48;;;;;;;;;;;;;;;13.99;54.48;102712.66;4998046;28;20000;-84
2021/11/18 01:23:15;;;;;;;;;;;;;;;13.80;54.91;102721.44;5013693;28;19922;-83
2021/11/18 01:25:41;;;;;;;;;;;;;;;13.75;55.09;102717.97;5013402;28;19917;-84
2021/11/18 01:28:07;;;;;;;;;;;;;;;14.05;54.58;102714.31;5013770;28;19918;-84
2021/11/18 01:30:33;;;;;;;;;;;;;;;13.91;54.81;102717.50;5014051;28;20013;-84
2021/11/18 01:32:59;;;;;;;;;;;;;;;13.72;55.31;102707.16;5014145;28;19918;-83
2021/11/18 01:35:25;;;;;;;;;;;;;;;14.14;54.28;102712.16;5013432;28;19929;-83
2021/11/18 01:37:52;;;;;;;;;;;;;;;14.04;54.56;102713.44;4997890;28;19922;-83
2021/11/18 01:40:20;;;;;;;;;;;;;;;14.11;54.28;102723.16;5012809;28;19918;-83
2021/11/18 01:42:46;;;;;;;;;;;;;;;14.17;54.12;102730.25;5012992;28;19917;-83
2021/11/18 01:45:13;;;;;;;;;;;;;;;14.13;54.33;102718.56;5012726;28;19924;-84
2021/11/18 01:47:38;;;;;;;;;;;;;;;14.45;53.42;102724.78;5012878;28;19948;-83
2021/11/18 01:50:04;;;;;;;;;;;;;;;14.35;53.46;102729.63;4998077;28;19922;-83
2021/11/18 01:52:30;;;;;;;;;;;;;;;14.36;53.18;102728.69;5013145;28;19928;-83
2021/11/18 01:54:55;;;;;;;;;;;;;;;14.26;53.56;102737.22;5013528;28;19917;-83
2021/11/18 01:57:25;;;;;;;;;;;;;;;14.50;53.15;102740.97;4997737;28;19922;-84
2021/11/18 01:59:51;;;;;;;;;;;;;;;14.74;52.55;102735.66;5013198;28;19981;-83
2021/11/18 02:02:17;;;;;;;;;;;;;;;14.71;52.50;102742.09;5013594;28;20446;-83
2021/11/18 02:04:57;;;;;;;;;;;;;;;14.71;52.54;102742.09;5013790;28;19918;-84
2021/11/18 02:07:22;;;;;;;;;;;;;;;14.54;53.24;102746.25;5013796;28;19972;-84
2021/11/18 02:09:49;;;;;;;;;;;;;;;14.58;53.50;102754.31;5000927;28;19917;-84
2021/11/18 02:12:17;;;;;;;;;;;;;;;14.64;52.84;102751.41;5015764;28;19922;-85
2021/11/18 02:14:42;;;;;;;;;;;;;;;14.57;53.71;102753.44;5015682;28;19924;-84
2021/11/18 02:17:09;;;;;;;;;;;;;;;14.35;54.46;102747.81;5015713;28;19957;-84
2021/11/18 02:19:36;;;;;;;;;;;;;;;14.49;53.71;102752.78;5000293;28;19918;-83
2021/11/18 02:22:02;;;;;;;;;;;;;;;14.42;54.30;102745.75;5016201;28;19918;-84
2021/11/18 02:24:41;;;;;;;;;;;;;;;14.36;54.44;102746.88;5015941;28;19918;-84
2021/11/18 02:27:08;;;;;;;;;;;;;;;14.42;53.92;102743.94;5015772;28;20449;-85
2021/11/18 02:29:33;;;;;;;;;;;;;;;14.52;53.55;102737.25;5015866;28;19944;-85
2021/11/18 02:32:00;;;;;;;;;;;;;;;15.29;51.59;102741.81;5019115;28;19918;-85
2021/11/18 02:34:29;;;;;;;;;;;;;;;15.10;51.87;102749.81;5019621;28;19917;-84
2021/11/18 02:36:54;;;;;;;;;;;;;;;14.29;54.60;102740.72;5019263;28;19992;-84
2021/11/18 02:39:20;;;;;;;;;;;;;;;14.57;53.56;102744.34;5018507;28;20438;-84
2021/11/18 02:41:45;;;;;;;;;;;;;;;14.16;54.65;102751.13;5018998;28;20437;-84
2021/11/18 02:44:10;;;;;;;;;;;;;;;14.31;54.28;102748.84;5003882;28;19961;-85
2021/11/18 02:46:35;;;;;;;;;;;;;;;14.75;53.31;102761.94;5004142;28;19956;-85
2021/11/18 02:49:02;;;;;;;;;;;;;;;15.05;52.64;102751.78;5019426;28;19941;-85
2021/11/18 02:51:27;;;;;;;;;;;;;;;15.56;50.99;102745.34;5018774;28;19914;-84
2021/11/18 02:53:52;;;;;;;;;;;;;;;15.69;50.48;102734.84;5019149;28;19941;-84
2021/11/18 02:56:18;;;;;;;;;;;;;;;15.63;50.84;102737.81;5018427;28;20260;-85
2021/11/18 02:58:43;;;;;;;;;;;;;;;15.33;51.57;102734.44;5018845;28;19929;-83
2021/11/18 03:01:20;;;;;;;;;;;;;;;15.18;52.18;102741.34;5018976;28;19940;-85
2021/11/18 03:03:46;;;;;;;;;;;;;;;14.48;54.66;102749.19;5018780;28;20004;-84
2021/11/18 03:06:11;;;;;;;;;;;;;;;15.01;53.15;102736.50;5018819;28;19960;-86
2021/11/18 03:08:37;;;;;;;;;;;;;;;15.16;52.53;102738.66;5018607;28;19948;-85
2021/11/18 03:11:03;;;;;;;;;;;;;;;14.85;53.41;102745.22;5018794;28;19925;-85
2021/11/18 03:13:29;;;;;;;;;;;;;;;14.92;53.27;102742.28;5018397;28;20398;-84
2021/11/18 03:15:57;;;;;;;;;;;;;;;15.18;52.36;102734.03;5018561;28;19918;-84
2021/11/18 03:18:23;;;;;;;;;;;;;;;14.95;53.38;102740.34;5019165;28;19918;-85
2021/11/18 03:20:48;;;;;;;;;;;;;;;14.54;54.21;102740.81;5019054;28;19925;-85
2021/11/18 03:23:14;;;;;;;;;;;;;;;14.82;54.13;102739.00;5018403;28;19929;-84
2021/11/18 03:25:39;;;;;;;;;;;;;;;15.22;52.66;102738.44;5018792;28;20066;-86
2021/11/18 03:28:05;;;;;;;;;;;;;;;14.93;53.36;102738.59;5018884;28;20519;-85
2021/11/18 03:30:33;;;;;;;;;;;;;;;14.65;54.87;102734.13;5018037;28;19976;-84
2021/11/18 03:33:00;;;;;;;;;;;;;;;14.91;53.82;102738.66;5018466;28;19918;-85
2021/11/18 03:35:26;;;;;;;;;;;;;;;14.75;54.54;102738.31;5018637;28;19922;-85
2021/11/18 03:37:51;;;;;;;;;;;;;;;15.23;53.32;102731.16;5018367;28;20020;-83
2021/11/18 03:40:17;;;;;;;;;;;;;;;15.31;52.66;102737.22;5017605;28;19941;-84
2021/11/18 03:42:43;;;;;;;;;;;;;;;15.15;53.25;102738.72;5016815;28;19929;-84
2021/11/18 03:45:09;;;;;;;;;;;;;;;15.24;53.25;102747.44;5017342;28;20393;-84
2021/11/18 03:47:34;;;;;;;;;;;;;;;15.17;52.96;102739.56;5003137;28;19922;-84
2021/11/18 03:49:59;;;;;;;;;;;;;;;15.58;52.35;102728.94;5018657;28;19925;-84
2021/11/18 03:52:24;;;;;;;;;;;;;;;15.81;51.74;102728.06;5018250;28;20001;-84
2021/11/18 03:54:50;;;;;;;;;;;;;;;16.00;51.13;102730.94;5017686;28;19941;-84
2021/11/18 03:57:16;;;;;;;;;;;;;;;15.40;52.45;102736.88;5017367;28;19925;-84
2021/11/18 03:59:42;;;;;;;;;;;;;;;15.48;52.38;102739.31;5017931;28;19947;-84
2021/11/18 04:02:09;;;;;;;;;;;;;;;15.43;52.68;102733.16;5018040;28;19961;-84
2021/11/18 04:04:36;;;;;;;;;;;;;;;15.17;53.75;102726.84;5002368;28;20395;-84
2021/11/18 04:07:01;;;;;;;;;;;;;;;14.51;55.22;102751.81;5018069;28;19922;-85
2021/11/18 04:09:27;;;;;;;;;;;;;;;14.36;56.11;102744.16;5017546;28;19917;-84
2021/11/18 04:11:53;;;;;;;;;;;;;;;14.68;54.95;102743.09;5017273;28;20290;-84
2021/11/18 04:14:19;;;;;;;;;;;;;;;14.82;54.59;102747.16;5016651;28;20020;-83
2021/11/18 04:16:45;;;;;;;;;;;;;;;15.09;53.41;102753.47;5016277;28;19965;-84
2021/11/18 04:19:10;;;;;;;;;;;;;;;14.46;55.60;102752.88;5015994;28;20016;-84
2021/11/18 04:21:36;;;;;;;;;;;;;;;14.68;54.84;102745.81;5016462;28;19922;-84
2021/11/18 04:24:03;;;;;;;;;;;;;;;14.62;55.09;102748.75;5016562;28;19981;-84
2021/11/18 04:26:28;;;;;;;;;;;;;;;15.06;53.81;102737.22;5016864;28;19924;-84
2021/11/18 04:28:54;;;;;;;;;;;;;;;15.11;53.20;102740.66;5001649;28;19922;-84
2021/11/18 04:31:20;;;;;;;;;;;;;;;15.23;52.93;102731.16;5001778;28;19917;-83
2021/11/18 04:33:46;;;;;;;;;;;;;;;14.31;55.50;102738.88;5016644;28;20008;-84
2021/11/18 04:36:13;;;;;;;;;;;;;;;14.45;55.74;102741.13;5016240;28;19957;-84
2021/11/18 04:38:39;;;;;;;;;;;;;;;14.15;56.37;102719.41;5016888;28;20288;-84
2021/11/18 04:41:06;;;;;;;;;;;;;;;14.02;56.75;102723.47;5002149;28;19944;-84
2021/11/18 04:43:31;;;;;;;;;;;;;;;14.32;56.27;102724.28;5017088;28;19918;-83
2021/11/18 04:45:57;;;;;;;;;;;;;;;14.66;54.43;102728.63;5017300;28;19924;-84
2021/11/18 04:48:22;;;;;;;;;;;;;;;14.39;55.38;102725.00;5002360;28;19971;-83
2021/11/18 04:50:47;;;;;;;;;;;;;;;14.78;54.55;102718.25;5017186;28;20363;-83
2021/11/18 04:53:14;;;;;;;;;;;;;;;14.61;54.42;102708.81;5015558;28;19928;-84
2021/11/18 04:55:40;;;;;;;;;;;;;;;14.76;54.35;102699.22;5016027;28;19972;-84
2021/11/18 04:58:06;;;;;;;;;;;;;;;14.63;54.42;102706.03;5016422;28;19925;-85
2021/11/18 05:00:34;;;;;;;;;;;;;;;14.75;54.06;102704.72;5001638;28;19925;-87
2021/11/18 05:02:59;;;;;;;;;;;;;;;14.58;54.42;102713.47;5017141;28;19918;-84
2021/11/18 05:05:25;;;;;;;;;;;;;;;14.80;53.46;102719.97;5016040;28;19929;-86
2021/11/18 05:07:51;;;;;;;;;;;;;;;14.46;54.91;102726.56;5001882;28;19929;-85
2021/11/18 05:10:16;;;;;;;;;;;;;;;14.65;54.58;102713.22;5015681;28;20012;-83
2021/11/18 05:12:42;;;;;;;;;;;;;;;15.22;52.61;102713.03;5016521;28;19921;-84
2021/11/18 05:15:09;;;;;;;;;;;;;;;14.92;53.61;102718.66;5016840;28;20290;-86
2021/11/18 05:17:34;;;;;;;;;;;;;;;14.63;54.82;102734.19;5016455;28;19922;-84
2021/11/18 05:19:59;;;;;;;;;;;;;;;14.34;56.03;102736.03;5016811;28;20406;-83
2021/11/18 05:22:25;;;;;;;;;;;;;;;14.43;55.52;102729.41;5016299;28;19922;-84
2021/11/18 05:24:52;;;;;;;;;;;;;;;14.79;54.68;102729.09;5000732;28;19989;-84
2021/11/18 05:27:17;;;;;;;;;;;;;;;14.80;54.61;102730.88;5000419;28;19984;-81
2021/11/18 05:29:42;;;;;;;;;;;;;;;14.75;54.34;102727.44;5015756;28;19943;-84
2021/11/18 05:32:08;;;;;;;;;;;;;;;14.23;56.06;102729.16;5016122;28;20390;-84
2021/11/18 05:34:33;;;;;;;;;;;;;;;14.89;54.67;102713.31;5015625;28;19922;-82
2021/11/18 05:36:58;;;;;;;;;;;;;;;14.57;55.14;102725.28;5016184;28;20379;-83
2021/11/18 05:39:23;;;;;;;;;;;;;;;14.49;56.13;102721.03;5016934;28;20041;-84
2021/11/18 05:41:49;;;;;;;;;;;;;;;14.86;54.30;102727.03;5019284;28;19918;-84
2021/11/18 05:44:14;;;;;;;;;;;;;;;15.29;53.42;102735.50;5017358;28;20308;-82
2021/11/18 05:46:42;;;;;;;;;;;;;;;15.48;52.15;102728.38;5016068;28;19922;-85
2021/11/18 05:49:08;;;;;;;;;;;;;;;14.88;54.64;102726.03;5014983;28;19917;-83
2021/11/18 05:51:34;;;;;;;;;;;;;;;14.59;55.56;102731.59;5014045;28;20002;-84
2021/11/18 05:53:59;;;;;;;;;;;;;;;14.80;54.53;102730.00;5014990;28;19918;-83
2021/11/18 05:56:25;;;;;;;;;;;;;;;15.38;53.43;102726.97;5015052;28;19937;-81
2021/11/18 05:58:51;;;;;;;;;;;;;;;14.79;55.03;102720.91;5012880;28;19918;-86
2021/11/18 06:01:18;;;;;;;;;;;;;;;14.29;56.64;102729.84;5000827;28;20399;-84
2021/11/18 06:03:44;;;;;;;;;;;;;;;14.50;56.37;102738.25;5013058;28;19918;-85
2021/11/18 06:06:10;;;;;;;;;;;;;;;15.10;54.06;102732.53;5014841;28;19918;-85
2021/11/18 06:08:35;;;;;;;;;;;;;;;14.97;54.19;102726.66;5018150;28;20391;-85
2021/11/18 06:11:00;;;;;;;;;;;;;;;15.06;55.10;102743.56;5020320;28;19918;-82
2021/11/18 06:13:25;;;;;;;;;;;;;;;14.75;56.12;102742.88;5006933;28;20303;-84
2021/11/18 06:15:51;;;;;;;;;;;;;;;15.30;53.95;102735.44;5020362;28;19918;-82
2021/11/18 06:18:16;;;;;;;;;;;;;;;14.85;55.13;102739.75;5004613;28;20283;-85
2021/11/18 06:20:42;;;;;;;;;;;;;;;15.01;54.39;102734.66;5019348;28;19985;-80
2021/11/18 06:23:07;;;;;;;;;;;;;;;14.89;54.66;102733.25;5019497;28;20542;-83
2021/11/18 06:25:34;;;;;;;;;;;;;;;14.80;55.30;102735.44;5017548;28;19961;-83
2021/11/18 06:27:59;;;;;;;;;;;;;;;14.96;54.95;102725.78;5000802;28;19951;-83
2021/11/18 06:30:27;;;;;;;;;;;;;;;15.27;53.77;102731.94;5015471;28;20016;-84
2021/11/18 06:32:53;;;;;;;;;;;;;;;15.06;54.62;102738.09;5001183;28;19968;-85
2021/11/18 06:35:18;;;;;;;;;;;;;;;15.28;53.52;102741.88;5000852;28;19922;-85
2021/11/18 06:37:44;;;;;;;;;;;;;;;15.51;53.38;102733.72;5000426;28;19925;-86
2021/11/18 06:40:11;;;;;;;;;;;;;;;14.79;54.70;102737.25;5015126;28;20395;-81
2021/11/18 06:42:37;;;;;;;;;;;;;;;15.07;54.02;102722.66;5015080;28;19945;-83
2021/11/18 06:45:02;;;;;;;;;;;;;;;14.73;54.76;102732.03;4999977;28;19918;-83
2021/11/18 06:47:28;;;;;;;;;;;;;;;14.63;55.20;102739.63;5015792;28;19918;-84
2021/11/18 06:49:54;;;;;;;;;;;;;;;14.49;55.77;102736.44;5001075;28;19925;-82
2021/11/18 06:52:19;;;;;;;;;;;;;;;15.37;53.01;102739.72;4999814;28;20583;-84
2021/11/18 06:54:49;;;;;;;;;;;;;;;14.28;56.37;102752.56;5015238;28;19918;-85
2021/11/18 06:57:14;;;;;;;;;;;;;;;15.51;53.07;102744.66;5015309;28;19929;-85
2021/11/18 06:59:39;;;;;;;;;;;;;;;15.18;54.15;102753.13;4998762;28;19922;-83
2021/11/18 07:02:04;;;;;;;;;;;;;;;15.04;53.76;102752.75;5014183;28;19918;-84
2021/11/18 07:04:30;;;;;;;;;;;;;;;14.70;55.44;102767.53;5015905;28;19925;-83
2021/11/18 07:06:55;;;;;;;;;;;;;;;15.67;52.04;102772.25;5014991;28;20268;-83
2021/11/18 07:09:20;;;;;;;;;;;;;;;16.20;50.49;102778.38;5012587;28;19929;-84
2021/11/18 07:11:46;;;;;;;;;;;;;;;16.08;51.59;102788.00;4998088;28;19922;-84
2021/11/18 07:14:11;;;;;;;;;;;;;;;15.52;52.90;102801.00;5013231;28;19918;-84
2021/11/18 07:16:36;;;;;;;;;;;;;;;15.71;52.65;102797.56;5012606;28;19917;-84
2021/11/18 07:19:05;;;;;;;;;;;;;;;15.78;52.32;102790.97;5012754;28;19917;-84
2021/11/18 07:21:33;;;;;;;;;;;;;;;15.54;52.76;102793.63;5013708;28;20287;-85
2021/11/18 07:23:59;;;;;;;;;;;;;;;15.35;53.17;102785.25;5013943;28;19929;-84
2021/11/18 07:26:25;;;;;;;;;;;;;;;15.82;52.13;102789.00;5013386;28;20286;-85
2021/11/18 07:28:50;;;;;;;;;;;;;;;15.72;52.36;102802.06;5013771;28;19918;-85
2021/11/18 07:31:15;;;;;;;;;;;;;;;15.92;51.64;102802.22;5014372;28;19957;-84
2021/11/18 07:33:40;;;;;;;;;;;;;;;15.80;52.30;102802.69;5013755;28;20083;-83
2021/11/18 07:36:06;;;;;;;;;;;;;;;15.56;52.53;102802.63;5012672;28;19917;-84
2021/11/18 07:38:32;;;;;;;;;;;;;;;15.11;54.08;102803.34;5013588;28;19972;-84
2021/11/18 07:40:58;;;;;;;;;;;;;;;15.86;52.27;102809.75;5013223;28;19918;-84
2021/11/18 07:43:28;;;;;;;;;;;;;;;15.21;54.07;102807.53;4997777;28;20415;-84
2021/11/18 07:45:55;;;;;;;;;;;;;;;15.29;54.15;102810.00;5013364;28;19968;-84
2021/11/18 07:48:20;;;;;;;;;;;;;;;15.23;54.04;102800.22;5013427;28;19964;-84
2021/11/18 07:50:46;;;;;;;;;;;;;;;15.37;53.80;102793.38;5013202;28;20291;-84
2021/11/18 07:53:12;;;;;;;;;;;;;;;15.62;53.11;102790.59;5013463;28;19956;-84
2021/11/18 07:55:37;;;;;;;;;;;;;;;15.12;55.35;102801.53;5012462;28;20331;-83
2021/11/18 07:58:03;;;;;;;;;;;;;;;15.02;55.38;102801.88;4997472;28;20012;-85
2021/11/18 08:00:28;;;;;;;;;;;;;;;15.80;53.08;102793.63;5014167;28;20280;-82
2021/11/18 08:02:54;;;;;;;;;;;;;;;15.95;52.14;102803.94;5014103;28;19922;-83
2021/11/18 08:05:20;;;;;;;;;;;;;;;15.91;52.38;102796.81;5013454;28;19929;-84
2021/11/18 08:07:45;;;;;;;;;;;;;;;15.42;53.43;102794.09;4998099;28;20399;-83
2021/11/18 08:10:12;;;;;;;;;;;;;;;14.63;55.49;102793.22;5020185;28;20021;-84
2021/11/18 08:12:38;;;;;;;;;;;;;;;15.12;55.15;102794.25;5012854;28;19918;-82
2021/11/18 08:15:04;;;;;;;;;;;;;;;15.27;54.36;102800.13;4998281;28;19945;-83
2021/11/18 08:17:30;;;;;;;;;;;;;;;15.60;53.21;102795.25;5012994;28;19961;-83
2021/11/18 08:19:55;;;;;;;;;;;;;;;15.67;52.61;102794.06;4997091;28;19918;-82
2021/11/18 08:22:20;;;;;;;;;;;;;;;14.82;56.05;102801.66;5012663;28;19929;-84
2021/11/18 08:24:46;;;;;;;;;;;;;;;15.48;54.25;102796.59;4997177;28;19925;-82
2021/11/18 08:27:11;;;;;;;;;;;;;;;14.03;59.70;102806.91;5012762;28;19918;-83
2021/11/18 08:29:36;;;;;;;;;;;;;;;14.78;57.94;102809.06;5011912;28;19988;-82
2021/11/18 08:32:02;;;;;;;;;;;;;;;14.68;57.00;102788.50;5012738;28;19914;-83
2021/11/18 08:34:27;;;;;;;;;;;;;;;15.03;55.99;102802.75;5013089;28;20287;-83
2021/11/18 08:36:53;;;;;;;;;;;;;;;15.88;54.45;102806.03;5012277;28;19925;-83
2021/11/18 08:39:19;;;;;;;;;;;;;;;15.72;54.51;102810.25;4996722;28;19921;-83
2021/11/18 08:41:45;;;;;;;;;;;;;;;15.42;54.68;102799.53;5012386;28;19963;-83
2021/11/18 08:44:11;;;;;;;;;;;;;;;15.65;54.44;102800.53;5013752;28;20020;-83
2021/11/18 08:46:36;;;;;;;;;;;;;;;15.94;53.25;102788.50;5012228;28;19960;-82
2021/11/18 08:49:01;;;;;;;;;;;;;;;15.51;54.33;102785.56;5013023;28;19918;-82
2021/11/18 08:51:28;;;;;;;;;;;;;;;15.65;54.62;102770.50;5013143;28;19913;-84
2021/11/18 08:53:54;;;;;;;;;;;;;;;15.08;56.28;102789.84;4998053;28;19972;-83
2021/11/18 08:56:20;;;;;;;;;;;;;;;16.46;52.53;102783.69;4997594;28;20012;-83
2021/11/18 08:58:47;;;;;;;;;;;;;;;15.97;54.19;102791.13;5011891;28;19968;-82
2021/11/18 09:01:15;;;;;;;;;;;;;;;16.11;53.25;102798.78;5012272;28;19953;-83
2021/11/18 09:03:41;;;;;;;;;;;;;;;15.99;53.45;102788.31;5011891;28;19918;-83
2021/11/18 09:06:08;;;;;;;;;;;;;;;15.68;54.22;102793.09;5012111;28;19941;-82
2021/11/18 09:08:34;;;;;;;;;;;;;;;16.10;54.43;102778.75;5011687;28;20403;-83
2021/11/18 09:11:00;;;;;;;;;;;;;;;16.66;51.83;102788.28;5012191;28;19964;-83
2021/11/18 09:13:25;;;;;;;;;;;;;;;16.63;51.27;102779.34;5011279;28;20025;-83
2021/11/18 09:15:51;;;;;;;;;;;;;;;15.93;53.31;102801.28;5011930;28;19968;-83
2021/11/18 09:18:17;;;;;;;;;;;;;;;16.11;53.42;102794.19;5012230;28;19925;-83
2021/11/18 09:20:42;;;;;;;;;;;;;;;15.54;54.64;102804.53;5001058;28;20465;-85
2021/11/18 09:23:08;;;;;;;;;;;;;;;15.75;54.77;102799.22;5017354;28;19921;-85
2021/11/18 09:25:37;;;;;;;;;;;;;;;16.39;52.59;102795.81;5017575;28;20302;-84
2021/11/18 09:28:04;;;;;;;;;;;;;;;16.63;52.84;102796.63;5018125;28;19918;-84
2021/11/18 09:30:34;;;;;;;;;;;;;;;17.72;49.48;102803.72;5016427;28;19921;-83
2021/11/18 09:33:00;;;;;;;;;;;;;;;16.59;52.19;102788.63;5015872;28;19933;-83
2021/11/18 09:35:31;;;;;;;;;;;;;;;16.01;54.68;102789.19;5015694;28;19944;-85
2021/11/18 09:37:56;;;;;;;;;;;;;;;15.87;54.28;102796.06;5016451;28;19979;-84
2021/11/18 09:40:25;;;;;;;;;;;;;;;17.33;50.81;102800.03;5018529;28;20294;-85
2021/11/18 09:43:09;;;;;;;;;;;;;;;18.18;48.49;102801.59;5021379;28;19925;-86
2021/11/18 09:45:38;;;;;;;;;;;;;;;16.49;52.04;102804.53;5029228;28;19922;-85
2021/11/18 09:48:22;;;;;;;;;;;;;;;17.56;49.02;102805.41;5001285;28;19918;-85
2021/11/18 09:50:54;;;;;;;;;;;;;;;17.47;49.85;102818.56;5002006;28;19918;-85
2021/11/18 09:53:31;;;;;;;;;;;;;;;18.26;47.24;102819.50;5001250;28;19924;-85
2021/11/18 09:56:02;;;;;;;;;;;;;;;18.44;47.92;102823.19;5002275;28;19914;-85
2021/11/18 09:58:37;;;;;;;;;;;;;;;18.78;46.61;102820.53;5017364;28;20001;-85
2021/11/18 10:01:34;;;;;;;;;;;;;;;17.61;49.34;102828.00;5017071;28;20368;-83
2021/11/18 10:04:03;;;;;;;;;;;;;;;17.32;49.13;102822.88;4994608;28;19914;-86
2021/11/18 10:06:36;;;;;;;;;;;;;;;17.67;48.80;102828.59;5016708;28;20001;-85
2021/11/18 10:09:15;;;;;;;;;;;;;;;18.71;46.32;102826.41;5000284;28;19921;-85
2021/11/18 10:11:59;;;;;;;;;;;;;;;19.11;45.29;102828.03;5000811;28;19922;-86
2021/11/18 10:14:34;;;;;;;;;;;;;;;19.19;45.35;102824.88;5016798;28;19961;-86
2021/11/18 10:17:13;;;;;;;;;;;;;;;18.61;46.20;102825.97;5000028;28;19917;-85
2021/11/18 10:19:44;;;;;;;;;;;;;;;18.14;47.18;102823.72;5000025;28;19917;-86
2021/11/18 10:22:15;;;;;;;;;;;;;;;18.18;47.27;102826.25;4999660;28;19906;-84
2021/11/18 10:24:42;;;;;;;;;;;;;;;19.01;44.84;102823.06;4999763;28;20379;-84
2021/11/18 10:27:27;;;;;;;;;;;;;;;18.08;47.95;102821.28;5016174;28;19929;-81
2021/11/18 10:30:05;;;;;;;;;;;;;;;19.67;44.31;102814.06;5025798;28;19925;-84
2021/11/18 10:32:32;;;;;;;;;;;;;;;19.65;43.60;102819.66;5020025;28;19975;-85
2021/11/18 10:35:00;;;;;;;;;;;;;;;17.69;47.20;102823.94;5019252;28;19932;-81
2021/11/18 10:37:27;;;;;;;;;;;;;;;18.22;47.79;102807.78;5019949;28;19924;-82
2021/11/18 10:39:52;;;;;;;;;;;;;;;19.97;43.63;102807.88;5017994;28;20406;-83
2021/11/18 10:42:24;;;;;;;;;;;;;;;18.27;47.53;102803.00;5034285;28;19917;-83
2021/11/18 10:44:49;;;;;;;;;;;;;;;19.85;43.58;102814.06;5035264;28;20385;-84
2021/11/18 10:47:17;;;;;;;;;;;;;;;18.32;46.11;102814.59;5035799;28;19981;-82
2021/11/18 10:49:48;;;;;;;;;;;;;;;18.62;46.07;102811.31;5018729;28;19971;-82
2021/11/18 10:52:19;;;;;;;;;;;;;;;20.19;43.07;102808.44;5018214;28;19959;-81
2021/11/18 10:54:47;;;;;;;;;;;;;;;19.63;43.62;102807.88;5034550;28;19968;-83
2021/11/18 10:57:22;;;;;;;;;;;;;;;18.64;45.99;102803.00;5017548;28;19905;-82
2021/11/18 10:59:50;;;;;;;;;;;;;;;19.51;44.70;102783.84;5017583;28;19917;-81
2021/11/18 11:02:29;;;;;;;;;;;;;;;18.53;47.00;102787.09;5033661;28;20123;-85
2021/11/18 11:04:59;;;;;;;;;;;;;;;20.05;43.21;102772.63;5018110;28;19932;-85
2021/11/18 11:07:44;;;;;;;;;;;;;;;19.32;45.09;102772.09;5018848;28;19927;-83
2021/11/18 11:10:12;;;;;;;;;;;;;;;18.33;47.10;102772.56;5035035;28;19917;-83
2021/11/18 11:12:43;;;;;;;;;;;;;;;18.10;47.94;102770.97;5036686;28;19954;-84
2021/11/18 11:15:09;;;;;;;;;;;;;;;18.48;47.35;102759.03;5021159;28;19918;-83
2021/11/18 11:17:43;;;;;;;;;;;;;;;17.45;49.13;102762.13;5035814;28;19921;-84
2021/11/18 11:20:15;;;;;;;;;;;;;;;17.59;48.11;102761.47;5033473;28;19918;-84
2021/11/18 11:22:51;;;;;;;;;;;;;;;19.15;46.64;102775.75;5033971;28;20019;-84
2021/11/18 11:25:20;;;;;;;;;;;;;;;17.77;48.46;102776.13;5017589;28;19952;-83
2021/11/18 11:27:46;;;;;;;;;;;;;;;18.56;46.54;102771.38;5017054;28;19918;-81
2021/11/18 11:30:20;;;;;;;;;;;;;;;19.39;45.56;102774.41;5018515;28;19917;-84
2021/11/18 11:33:12;;;;;;;;;;;;;;;19.37;44.78;102765.38;5033879;28;20314;-84
2021/11/18 11:35:49;;;;;;;;;;;;;;;18.72;46.12;102763.28;5018239;28;19971;-84
2021/11/18 11:38:17;;;;;;;;;;;;;;;19.09;45.30;102769.59;5033184;28;20366;-82
2021/11/18 11:40:59;;;;;;;;;;;;;;;18.80;45.94;102765.63;5017869;28;19917;-84
2021/11/18 11:43:38;;;;;;;;;;;;;;;20.33;42.35;102754.53;5017775;28;20403;-84
2021/11/18 11:46:14;;;;;;;;;;;;;;;20.17;42.61;102760.94;5018114;28;19922;-84
2021/11/18 11:48:51;;;;;;;;;;;;;;;20.64;41.78;102752.75;5016975;28;20368;-83
2021/11/18 11:51:35;;;;;;;;;;;;;;;20.13;42.64;102758.47;5033459;28;20006;-84
2021/11/18 11:54:03;;;;;;;;;;;;;;;19.09;45.74;102753.13;5018183;28;20490;-84
2021/11/18 11:56:33;;;;;;;;;;;;;;;19.88;43.51;102745.22;5034290;28;19924;-86
2021/11/18 11:59:27;;;;;;;;;;;;;;;19.69;44.98;102749.00;5034188;28;19917;-85
2021/11/18 12:02:03;;;;;;;;;;;;;;;19.04;45.18;102751.63;5024831;28;19982;-84
2021/11/18 12:04:35;;;;;;;;;;;;;;;17.55;49.23;102747.06;5017552;28;20003;-85
2021/11/18 12:07:04;;;;;;;;;;;;;;;19.21;44.77;102747.97;5035052;28;19925;-87
2021/11/18 12:09:32;;;;;;;;;;;;;;;18.68;46.33;102750.69;5034473;28;19925;-87
2021/11/18 12:12:05;;;;;;;;;;;;;;;18.89;45.99;102743.22;5034229;28;19917;-87
2021/11/18 12:14:36;;;;;;;;;;;;;;;17.77;47.45;102740.56;5018021;28;19918;-87
2021/11/18 12:17:01;;;;;;;;;;;;;;;18.44;46.82;102749.22;5017977;28;19940;-87
2021/11/18 12:19:36;;;;;;;;;;;;;;;18.32;47.19;102737.88;5034080;28;19917;-86
2021/11/18 12:22:21;;;;;;;;;;;;;;;18.91;45.91;102746.75;5017556;28;19917;-88
2021/11/18 12:25:05;;;;;;;;;;;;;;;17.55;48.38;102747.06;5018040;28;19932;-86
2021/11/18 12:27:36;;;;;;;;;;;;;;;17.87;49.07;102758.31;5018302;28;19968;-85
2021/11/18 12:30:12;;;;;;;;;;;;;;;18.65;46.85;102753.59;5033230;28;19980;-85
2021/11/18 12:32:38;;;;;;;;;;;;;;;18.29;48.50;102746.25;5033083;28;19943;-85
2021/11/18 12:35:04;;;;;;;;;;;;;;;18.85;46.67;102746.19;5033849;28;19926;-84
2021/11/18 12:37:47;;;;;;;;;;;;;;;18.94;46.32;102740.25;5017661;28;19992;-85